Time;durP1;ratioP1;P1;durP2;ratioP2;P2;SDS_P1;SDS_P2;PMS_P1;PMS_P2;Temp;Humidity;BMP_temperature;BMP_pressure;BME280_temperature;BME280_humidity;BME280_pressure;Samples;Min_cycle;Max_cycle;Signal;HPM_P1;HPM_P2
2021/05/13 00:00:36;;;;;;;2.58;0.90;;;14.00;99.90;;;;;;5046251;28;20031;-53
2021/05/13 00:03:03;;;;;;;1.23;0.90;;;13.90;99.90;;;;;;5047716;28;20465;-53
2021/05/13 00:05:28;;;;;;;0.82;0.70;;;13.90;99.90;;;;;;5047000;28;20029;-53
2021/05/13 00:07:54;;;;;;;2.50;1.13;;;13.80;99.90;;;;;;5049126;28;21776;-54
2021/05/13 00:10:23;;;;;;;2.00;1.02;;;13.70;99.90;;;;;;5065142;28;20033;-54
2021/05/13 00:13:01;;;;;;;1.10;0.70;;;13.80;99.90;;;;;;5067436;28;20036;-54
2021/05/13 00:15:32;;;;;;;3.25;0.80;;;13.70;99.90;;;;;;5067099;28;20021;-54
2021/05/13 00:17:58;;;;;;;0.73;0.52;;;13.60;99.90;;;;;;5067414;28;20016;-54
2021/05/13 00:20:31;;;;;;;2.05;0.63;;;13.60;99.90;;;;;;5066839;28;20542;-54
2021/05/13 00:22:59;;;;;;;1.50;0.60;;;13.50;99.90;;;;;;5065969;28;20398;-54
2021/05/13 00:25:25;;;;;;;1.98;0.70;;;13.50;99.90;;;;;;5051558;28;20511;-54
2021/05/13 00:27:52;;;;;;;0.57;0.55;;;13.50;99.90;;;;;;5060982;28;20189;-54
2021/05/13 00:30:19;;;;;;;1.50;0.90;;;13.50;99.90;;;;;;5066876;28;20032;-53
2021/05/13 00:32:45;;;;;;;0.40;0.30;;;13.50;99.90;;;;;;5066807;28;20039;-54
2021/05/13 00:35:15;;;;;;;0.50;0.40;;;13.40;99.90;;;;;;5054206;28;20033;-54
2021/05/13 00:37:43;;;;;;;0.32;0.32;;;13.30;99.90;;;;;;5046748;28;20060;-53
2021/05/13 00:40:10;;;;;;;0.30;0.30;;;13.40;99.90;;;;;;5047023;28;20033;-53
2021/05/13 00:42:37;;;;;;;0.30;0.30;;;13.30;99.90;;;;;;5046582;28;20052;-53
2021/05/13 00:45:08;;;;;;;1.00;0.40;;;13.30;99.90;;;;;;5056883;28;20047;-54
2021/05/13 00:47:37;;;;;;;2.72;0.30;;;13.40;99.90;;;;;;5066792;28;20043;-54
2021/05/13 00:50:06;;;;;;;0.30;0.30;;;13.40;99.90;;;;;;5066639;28;20460;-54
2021/05/13 00:52:33;;;;;;;0.17;0.17;;;13.30;99.90;;;;;;5065480;28;20453;-54
2021/05/13 00:54:59;;;;;;;0.20;0.20;;;13.30;99.90;;;;;;5057273;28;20660;-54
2021/05/13 00:57:26;;;;;;;0.17;0.17;;;13.20;99.90;;;;;;5046868;28;20032;-53
2021/05/13 00:59:56;;;;;;;0.20;0.20;;;13.20;99.90;;;;;;5046799;28;20079;-54
2021/05/13 01:02:22;;;;;;;0.65;0.28;;;13.30;99.90;;;;;;5050259;28;20099;-53
2021/05/13 01:04:49;;;;;;;0.30;0.30;;;13.30;99.90;;;;;;5057604;28;20037;-53
2021/05/13 01:07:16;;;;;;;0.20;0.20;;;13.30;99.90;;;;;;5046859;28;20463;-54
2021/05/13 01:09:42;;;;;;;0.20;0.20;;;13.20;99.90;;;;;;5046696;28;20098;-53
2021/05/13 01:12:13;;;;;;;0.20;0.20;;;13.30;99.90;;;;;;5049805;28;20017;-54
2021/05/13 01:14:47;;;;;;;0.20;0.20;;;13.20;99.90;;;;;;5050245;28;20061;-54
2021/05/13 01:19:46;;;;;;;0.20;0.20;;;13.20;99.90;;;;;;5067526;28;20064;-53
2021/05/13 01:22:12;;;;;;;0.38;0.30;;;13.30;99.90;;;;;;5050660;28;20029;-54
2021/05/13 01:24:39;;;;;;;1.08;0.22;;;13.10;99.90;;;;;;5050859;28;20029;-55
2021/05/13 01:27:05;;;;;;;0.20;0.20;;;13.10;99.90;;;;;;5050357;28;20403;-54
2021/05/13 01:29:31;;;;;;;0.52;0.20;;;13.00;99.90;;;;;;5060528;28;20040;-54
2021/05/13 01:31:57;;;;;;;0.20;0.20;;;13.00;99.90;;;;;;5070772;28;20029;-53
2021/05/13 01:34:23;;;;;;;0.75;0.28;;;12.90;99.90;;;;;;5070488;28;20081;-49
2021/05/13 01:36:50;;;;;;;0.32;0.30;;;12.70;99.90;;;;;;5070184;28;20703;-49
2021/05/13 01:39:16;;;;;;;0.95;0.30;;;12.00;99.90;;;;;;5063399;28;20032;-49
2021/05/13 01:41:44;;;;;;;0.65;0.40;;;11.70;99.90;;;;;;5049898;28;20025;-50
2021/05/13 01:44:11;;;;;;;0.65;0.65;;;11.50;99.90;;;;;;5049997;28;20075;-49
2021/05/13 01:46:37;;;;;;;1.15;0.40;;;11.60;99.90;;;;;;5049668;28;20029;-51
2021/05/13 01:49:04;;;;;;;0.80;0.30;;;11.60;99.90;;;;;;5053259;28;20036;-52
2021/05/13 01:51:31;;;;;;;0.68;0.38;;;11.60;99.90;;;;;;5053075;28;20037;-50
2021/05/13 01:53:56;;;;;;;0.63;0.30;;;11.80;99.90;;;;;;5050115;28;20115;-49
2021/05/13 01:56:22;;;;;;;0.30;0.30;;;11.80;99.90;;;;;;5050173;28;20109;-49
2021/05/13 01:58:49;;;;;;;0.20;0.20;;;11.90;99.90;;;;;;5049390;28;20060;-51
2021/05/13 02:01:16;;;;;;;0.30;0.30;;;11.90;99.90;;;;;;5049820;28;20029;-49
2021/05/13 02:03:44;;;;;;;1.35;0.65;;;11.90;99.90;;;;;;5049708;28;20449;-52
2021/05/13 02:06:10;;;;;;;0.20;0.20;;;11.90;99.90;;;;;;5049834;28;20036;-52
2021/05/13 02:08:36;;;;;;;0.85;0.32;;;11.90;99.90;;;;;;5067655;28;20107;-51
2021/05/13 02:11:02;;;;;;;0.20;0.20;;;12.00;99.90;;;;;;5068195;28;20566;-52
2021/05/13 02:13:28;;;;;;;0.20;0.20;;;12.00;99.90;;;;;;5067312;28;20047;-49
2021/05/13 02:15:54;;;;;;;1.48;0.30;;;12.00;99.90;;;;;;5068970;28;20028;-51
2021/05/13 02:18:23;;;;;;;0.52;0.35;;;12.00;99.90;;;;;;5069020;28;20036;-51
2021/05/13 02:20:50;;;;;;;0.25;0.25;;;12.10;99.90;;;;;;5069285;28;20047;-53
2021/05/13 02:23:16;;;;;;;0.38;0.30;;;12.10;99.90;;;;;;5069037;28;20024;-52
2021/05/13 02:25:45;;;;;;;0.30;0.30;;;11.80;99.90;;;;;;5068049;28;20507;-49
2021/05/13 02:28:11;;;;;;;0.35;0.35;;;12.00;99.90;;;;;;5069510;28;20031;-53
2021/05/13 02:30:38;;;;;;;0.20;0.20;;;11.80;99.90;;;;;;5068931;28;20028;-50
2021/05/13 02:33:04;;;;;;;0.20;0.20;;;12.00;99.90;;;;;;5069240;28;20269;-49
2021/05/13 02:35:30;;;;;;;0.52;0.40;;;12.10;99.90;;;;;;5052226;28;20515;-50
2021/05/13 02:37:57;;;;;;;1.20;0.40;;;12.20;99.90;;;;;;5049104;28;20061;-49
2021/05/13 02:40:23;;;;;;;0.30;0.30;;;12.00;99.90;;;;;;5065093;28;20394;-49
2021/05/13 02:42:50;;;;;;;0.22;0.22;;;12.10;99.90;;;;;;5069302;28;20029;-48
2021/05/13 02:45:16;;;;;;;0.30;0.30;;;12.00;99.90;;;;;;5068959;28;20273;-51
2021/05/13 02:47:42;;;;;;;1.60;0.30;;;12.10;99.90;;;;;;5065083;28;20033;-52
2021/05/13 02:50:11;;;;;;;0.30;0.30;;;12.10;99.90;;;;;;5062267;28;20036;-49
2021/05/13 02:52:36;;;;;;;0.82;0.25;;;12.00;99.90;;;;;;5068740;28;20056;-51
2021/05/13 02:55:04;;;;;;;0.65;0.30;;;12.10;99.90;;;;;;5068767;28;20066;-52
2021/05/13 02:57:30;;;;;;;0.40;0.35;;;12.10;99.90;;;;;;5068601;28;20033;-53
2021/05/13 03:00:24;;;;;;;0.30;0.30;;;12.10;99.90;;;;;;5056446;28;20295;-53
2021/05/13 03:02:44;;;;;;;0.30;0.30;;;12.10;99.90;;;;;;5048055;28;20037;-53
2021/05/13 03:05:12;;;;;;;0.52;0.50;;;12.10;99.90;;;;;;5048656;28;20036;-52
2021/05/13 03:07:46;;;;;;;0.20;0.20;;;12.10;99.90;;;;;;5048666;28;20033;-52
2021/05/13 03:10:57;;;;;;;0.57;0.30;;;12.10;99.90;;;;;;5061585;28;20115;-52
2021/05/13 03:12:59;;;;;;;0.35;0.35;;;12.20;99.90;;;;;;5060895;28;20052;-53
2021/05/13 03:15:25;;;;;;;2.78;0.30;;;12.40;99.90;;;;;;5068335;28;20052;-52
2021/05/13 03:17:52;;;;;;;1.25;0.30;;;12.30;99.90;;;;;;5068572;28;20624;-50
2021/05/13 03:20:23;;;;;;;0.25;0.25;;;12.40;99.90;;;;;;5053184;28;20108;-51
2021/05/13 03:22:53;;;;;;;0.63;0.30;;;12.30;99.90;;;;;;5048252;28;20109;-50
2021/05/13 03:25:25;;;;;;;0.30;0.30;;;12.20;99.90;;;;;;5048717;28;20025;-53
2021/05/13 03:27:55;;;;;;;0.30;0.30;;;12.40;99.90;;;;;;5048066;28;20384;-50
2021/05/13 03:30:24;;;;;;;0.30;0.30;;;12.30;99.90;;;;;;5062675;28;20077;-52
2021/05/13 03:32:52;;;;;;;0.30;0.30;;;12.30;99.90;;;;;;5066556;28;20040;-50
2021/05/13 03:35:17;;;;;;;1.35;0.30;;;12.30;99.90;;;;;;5067827;28;20384;-51
2021/05/13 03:37:43;;;;;;;1.90;0.52;;;12.20;99.90;;;;;;5067718;28;20020;-50
2021/05/13 03:40:09;;;;;;;0.28;0.28;;;12.10;99.90;;;;;;5056954;28;20103;-50
2021/05/13 03:42:35;;;;;;;0.30;0.30;;;12.20;99.90;;;;;;5047693;28;20029;-53
2021/05/13 03:45:01;;;;;;;0.63;0.30;;;12.20;99.90;;;;;;5048016;28;20085;-51
2021/05/13 03:47:26;;;;;;;1.50;0.60;;;12.10;99.90;;;;;;5049672;28;20028;-52
2021/05/13 03:49:53;;;;;;;0.20;0.20;;;11.90;99.90;;;;;;5059563;28;20048;-52
2021/05/13 03:52:20;;;;;;;1.27;0.30;;;11.90;99.90;;;;;;5048232;28;20122;-52
2021/05/13 03:54:45;;;;;;;0.70;0.45;;;11.90;99.90;;;;;;5047565;28;20035;-52
2021/05/13 03:57:12;;;;;;;0.35;0.30;;;12.00;99.90;;;;;;5048016;28;20029;-53
2021/05/13 03:59:40;;;;;;;1.38;0.55;;;12.00;99.90;;;;;;5052517;28;20407;-51
2021/05/13 04:04:50;;;;;;;0.63;0.40;;;11.90;99.90;;;;;;5067429;28;20043;-52
2021/05/13 04:07:17;;;;;;;0.32;0.32;;;11.90;99.90;;;;;;5067290;28;20102;-52
2021/05/13 04:09:43;;;;;;;0.40;0.40;;;12.10;99.90;;;;;;5064356;28;20495;-50
2021/05/13 04:12:09;;;;;;;0.30;0.30;;;12.10;99.90;;;;;;5066776;28;20028;-51
2021/05/13 04:14:34;;;;;;;0.75;0.47;;;12.10;99.90;;;;;;5067039;28;20041;-52
2021/05/13 04:17:02;;;;;;;0.50;0.40;;;12.00;99.90;;;;;;5067053;28;20020;-50
2021/05/13 04:19:27;;;;;;;0.30;0.30;;;12.00;99.90;;;;;;5065893;28;20032;-52
2021/05/13 04:21:53;;;;;;;0.40;0.40;;;12.10;99.90;;;;;;5047562;28;20028;-52
2021/05/13 04:24:19;;;;;;;0.60;0.50;;;12.00;99.90;;;;;;5047504;28;20029;-49
2021/05/13 04:26:45;;;;;;;0.50;0.40;;;12.10;99.90;;;;;;5047308;28;20017;-49
2021/05/13 04:29:12;;;;;;;0.43;0.30;;;12.10;99.90;;;;;;5047301;28;20033;-51
2021/05/13 04:31:38;;;;;;;0.47;0.38;;;12.10;99.90;;;;;;5046280;28;20569;-50
2021/05/13 04:34:05;;;;;;;0.50;0.50;;;12.10;99.90;;;;;;5047150;28;20037;-50
2021/05/13 04:36:31;;;;;;;0.32;0.32;;;12.20;99.90;;;;;;5046666;28;20633;-52
2021/05/13 04:38:57;;;;;;;0.50;0.50;;;12.20;99.90;;;;;;5047401;28;20040;-51
2021/05/13 04:41:30;;;;;;;1.52;0.60;;;12.20;99.90;;;;;;5047130;28;20434;-53
2021/05/13 04:43:58;;;;;;;1.20;0.63;;;12.20;99.90;;;;;;5047059;28;20017;-51
2021/05/13 04:46:27;;;;;;;0.40;0.40;;;12.20;99.90;;;;;;5046621;28;20503;-53
2021/05/13 04:49:03;;;;;;;0.50;0.40;;;12.20;99.90;;;;;;5047001;28;20075;-52
2021/05/13 04:51:32;;;;;;;0.40;0.40;;;12.20;99.90;;;;;;5046449;28;20064;-51
2021/05/13 04:53:59;;;;;;;0.80;0.40;;;12.10;99.90;;;;;;5046792;28;20402;-53
2021/05/13 04:56:27;;;;;;;0.50;0.50;;;12.20;99.90;;;;;;5046607;28;20035;-53
2021/05/13 04:58:54;;;;;;;0.40;0.40;;;12.20;99.90;;;;;;5055293;28;20403;-52
2021/05/13 05:01:20;;;;;;;0.57;0.50;;;12.20;99.90;;;;;;5066760;28;20036;-53
2021/05/13 05:03:46;;;;;;;0.55;0.40;;;12.20;99.90;;;;;;5066407;28;20605;-53
2021/05/13 05:06:12;;;;;;;1.15;0.52;;;12.20;99.90;;;;;;5066536;28;20112;-54
2021/05/13 05:08:39;;;;;;;0.30;0.30;;;12.20;99.90;;;;;;5064206;28;20108;-52
2021/05/13 05:11:06;;;;;;;0.50;0.43;;;12.20;99.90;;;;;;5066419;28;20040;-51
2021/05/13 05:13:34;;;;;;;0.60;0.43;;;12.20;99.90;;;;;;5066278;28;20351;-53
2021/05/13 05:16:01;;;;;;;0.55;0.30;;;12.20;99.90;;;;;;5066402;28;20024;-53
2021/05/13 05:18:27;;;;;;;1.38;0.50;;;12.10;99.90;;;;;;5061193;28;20028;-53
2021/05/13 05:20:53;;;;;;;0.82;0.40;;;12.20;99.90;;;;;;5046631;28;20017;-53
2021/05/13 05:23:20;;;;;;;1.60;0.35;;;12.10;99.90;;;;;;5046680;28;20029;-54
2021/05/13 05:25:47;;;;;;;0.38;0.28;;;12.10;99.90;;;;;;5046037;28;20048;-52
2021/05/13 05:28:13;;;;;;;0.40;0.40;;;12.10;99.90;;;;;;5046804;28;20072;-52
2021/05/13 05:30:40;;;;;;;0.30;0.30;;;12.10;99.90;;;;;;5045788;28;20037;-50
2021/05/13 05:33:08;;;;;;;0.30;0.30;;;12.20;99.90;;;;;;5046606;28;20415;-52
2021/05/13 05:35:35;;;;;;;0.73;0.50;;;12.10;99.90;;;;;;5045959;28;20271;-52
2021/05/13 05:38:01;;;;;;;0.43;0.43;;;12.20;99.90;;;;;;5046245;28;20155;-52
2021/05/13 05:40:28;;;;;;;0.40;0.40;;;12.10;99.90;;;;;;5046337;28;20499;-53
2021/05/13 05:42:54;;;;;;;2.00;0.55;;;12.10;99.90;;;;;;5052169;28;20483;-53
2021/05/13 05:45:22;;;;;;;0.95;0.40;;;12.10;99.90;;;;;;5066515;28;20040;-54
2021/05/13 05:47:49;;;;;;;1.13;0.57;;;12.00;99.90;;;;;;5062820;28;20517;-53
2021/05/13 05:50:16;;;;;;;0.75;0.30;;;12.10;99.90;;;;;;5046508;28;20158;-53
2021/05/13 05:52:42;;;;;;;0.40;0.40;;;12.00;99.90;;;;;;5045922;28;20036;-53
2021/05/13 05:55:09;;;;;;;0.82;0.60;;;12.10;99.90;;;;;;5049693;28;20398;-52
2021/05/13 05:57:35;;;;;;;1.00;0.60;;;11.90;99.90;;;;;;5070292;28;20029;-53
2021/05/13 06:00:02;;;;;;;1.63;0.90;;;12.00;99.90;;;;;;5066677;28;20517;-52
2021/05/13 06:02:28;;;;;;;0.88;0.70;;;11.90;99.90;;;;;;5070632;28;20106;-53
2021/05/13 06:04:54;;;;;;;0.60;0.55;;;12.00;99.90;;;;;;5059126;28;20033;-54
2021/05/13 06:07:20;;;;;;;0.85;0.55;;;12.10;99.90;;;;;;5051288;28;20071;-53
2021/05/13 06:09:46;;;;;;;1.15;0.50;;;12.20;99.90;;;;;;5057922;28;20033;-54
2021/05/13 06:12:13;;;;;;;0.50;0.43;;;12.20;99.90;;;;;;5070399;28;20388;-52
2021/05/13 06:14:39;;;;;;;0.90;0.60;;;12.20;99.90;;;;;;5068717;28;20074;-54
2021/05/13 06:17:05;;;;;;;0.45;0.40;;;12.20;99.90;;;;;;5069556;28;20479;-52
2021/05/13 06:19:31;;;;;;;1.23;0.50;;;12.20;99.90;;;;;;5069140;28;20027;-54
2021/05/13 06:21:58;;;;;;;0.38;0.38;;;12.20;99.90;;;;;;5069594;28;20021;-53
2021/05/13 06:24:24;;;;;;;0.65;0.50;;;12.20;99.90;;;;;;5067675;28;20024;-52
2021/05/13 06:27:00;;;;;;;0.85;0.60;;;12.00;99.90;;;;;;5067815;28;20900;-51
2021/05/13 06:29:28;;;;;;;1.50;0.85;;;11.90;99.90;;;;;;5069605;28;20406;-52
2021/05/13 06:31:54;;;;;;;2.53;1.02;;;11.60;99.90;;;;;;5067439;28;20032;-52
2021/05/13 06:34:20;;;;;;;1.08;0.50;;;11.80;99.90;;;;;;5069673;28;20024;-53
2021/05/13 06:36:47;;;;;;;0.55;0.45;;;11.70;99.90;;;;;;5067216;28;20391;-52
2021/05/13 06:39:13;;;;;;;0.55;0.52;;;11.70;99.90;;;;;;5069304;28;20391;-53
2021/05/13 06:41:42;;;;;;;0.30;0.30;;;11.60;99.90;;;;;;5067740;28;20029;-53
2021/05/13 06:44:09;;;;;;;0.57;0.40;;;11.60;99.90;;;;;;5068895;28;20027;-53
2021/05/13 06:46:35;;;;;;;0.38;0.38;;;11.90;99.90;;;;;;5068153;28;20037;-52
2021/05/13 06:49:00;;;;;;;0.52;0.52;;;12.10;99.90;;;;;;5066678;28;20036;-53
2021/05/13 06:51:27;;;;;;;1.10;0.50;;;12.00;99.90;;;;;;5068802;28;20112;-53
2021/05/13 06:53:52;;;;;;;0.88;0.50;;;12.10;99.90;;;;;;5067747;28;20028;-54
2021/05/13 06:56:18;;;;;;;0.90;0.38;;;12.00;99.90;;;;;;5067822;28;20037;-51
2021/05/13 06:58:45;;;;;;;0.85;0.43;;;12.20;99.90;;;;;;5058796;28;20017;-53
2021/05/13 07:01:11;;;;;;;0.50;0.50;;;12.30;99.90;;;;;;5057731;28;20024;-52
2021/05/13 07:03:38;;;;;;;1.45;0.55;;;12.40;99.90;;;;;;5056961;28;20507;-54
2021/05/13 07:06:04;;;;;;;1.05;0.55;;;12.30;99.90;;;;;;5055878;28;20039;-54
2021/05/13 07:08:29;;;;;;;1.58;0.50;;;12.50;99.90;;;;;;5049722;28;20103;-53
2021/05/13 07:10:55;;;;;;;0.80;0.40;;;12.70;99.90;;;;;;5051116;28;20529;-53
2021/05/13 07:13:21;;;;;;;1.02;0.45;;;12.60;99.90;;;;;;5059033;28;20035;-53
2021/05/13 07:15:48;;;;;;;0.30;0.30;;;12.40;99.90;;;;;;5060023;28;20460;-53
2021/05/13 07:18:15;;;;;;;0.52;0.40;;;12.40;99.90;;;;;;5056037;28;20515;-53
2021/05/13 07:20:41;;;;;;;1.15;0.50;;;12.70;99.90;;;;;;5053830;28;20040;-54
2021/05/13 07:23:07;;;;;;;0.40;0.40;;;12.80;99.90;;;;;;5057170;28;20024;-53
2021/05/13 07:25:34;;;;;;;0.50;0.38;;;12.60;99.90;;;;;;5053080;28;20514;-53
2021/05/13 07:28:00;;;;;;;0.65;0.50;;;12.60;99.90;;;;;;5058328;28;20375;-53
2021/05/13 07:30:27;;;;;;;0.38;0.30;;;12.40;99.90;;;;;;5048281;28;20051;-54
2021/05/13 07:32:53;;;;;;;0.73;0.40;;;12.40;99.90;;;;;;5063886;28;20028;-52
2021/05/13 07:35:19;;;;;;;0.30;0.30;;;12.50;99.90;;;;;;5067849;28;20024;-52
2021/05/13 07:37:46;;;;;;;0.47;0.40;;;12.70;99.90;;;;;;5069567;28;20885;-53
2021/05/13 07:40:15;;;;;;;0.30;0.30;;;12.90;99.90;;;;;;5056369;28;20032;-54
2021/05/13 07:42:41;;;;;;;1.05;0.50;;;12.90;99.90;;;;;;5051796;28;20519;-53
2021/05/13 07:45:07;;;;;;;1.20;0.55;;;13.00;99.90;;;;;;5054556;28;20054;-53
2021/05/13 07:47:37;;;;;;;0.40;0.38;;;12.80;99.90;;;;;;5057056;28;20056;-53
2021/05/13 07:50:08;;;;;;;0.50;0.50;;;13.00;99.90;;;;;;5056648;28;20370;-54
2021/05/13 07:52:34;;;;;;;1.75;0.32;;;13.00;99.90;;;;;;5058302;28;20024;-54
2021/05/13 07:55:00;;;;;;;0.43;0.40;;;13.20;99.90;;;;;;5068919;28;20028;-53
2021/05/13 07:57:26;;;;;;;0.52;0.40;;;13.20;99.90;;;;;;5068906;28;20402;-52
2021/05/13 07:59:53;;;;;;;0.40;0.40;;;13.10;99.90;;;;;;5064074;28;20104;-53
2021/05/13 08:02:18;;;;;;;0.88;0.70;;;13.20;99.90;;;;;;5054249;28;20020;-52
2021/05/13 08:04:44;;;;;;;0.47;0.40;;;13.30;99.90;;;;;;5050855;28;20477;-53
2021/05/13 08:07:11;;;;;;;1.60;0.47;;;13.40;99.90;;;;;;5055789;28;20025;-53
2021/05/13 08:09:36;;;;;;;0.45;0.45;;;13.40;99.90;;;;;;5052041;28;20108;-52
2021/05/13 08:12:02;;;;;;;0.45;0.40;;;13.40;99.90;;;;;;5052989;28;21415;-52
2021/05/13 08:14:29;;;;;;;0.98;0.40;;;13.40;99.90;;;;;;5057838;28;20104;-52
2021/05/13 08:16:55;;;;;;;0.63;0.30;;;13.50;99.90;;;;;;5064298;28;20048;-54
2021/05/13 08:19:21;;;;;;;0.57;0.30;;;13.60;99.90;;;;;;5068057;28;20035;-53
2021/05/13 08:21:47;;;;;;;0.93;0.60;;;13.70;99.90;;;;;;5063523;28;20598;-53
2021/05/13 08:24:13;;;;;;;0.40;0.40;;;13.10;99.90;;;;;;5068496;28;20071;-54
2021/05/13 08:26:39;;;;;;;0.98;0.40;;;12.90;99.90;;;;;;5066348;28;20033;-50
2021/05/13 08:29:05;;;;;;;0.55;0.32;;;13.20;99.90;;;;;;5069066;28;20033;-52
2021/05/13 08:31:32;;;;;;;1.42;0.40;;;13.30;99.90;;;;;;5056020;28;20413;-51
2021/05/13 08:33:57;;;;;;;0.88;0.40;;;13.50;99.90;;;;;;5056290;28;20041;-51
2021/05/13 08:36:23;;;;;;;0.50;0.50;;;13.70;99.90;;;;;;5052499;28;20491;-51
2021/05/13 08:38:49;;;;;;;0.77;0.40;;;13.60;99.90;;;;;;5068667;28;20020;-53
2021/05/13 08:41:15;;;;;;;0.70;0.40;;;13.70;99.90;;;;;;5067822;28;20040;-54
2021/05/13 08:43:43;;;;;;;0.57;0.40;;;13.70;99.90;;;;;;5068794;28;20035;-54
2021/05/13 08:46:08;;;;;;;1.25;0.60;;;13.80;99.90;;;;;;5068975;28;20108;-53
2021/05/13 08:48:34;;;;;;;0.32;0.32;;;13.70;99.90;;;;;;5066745;28;20075;-53
2021/05/13 08:51:00;;;;;;;1.23;0.40;;;13.90;99.90;;;;;;5068890;28;20416;-54
2021/05/13 08:53:30;;;;;;;0.52;0.40;;;13.80;99.90;;;;;;5076346;28;20162;-55
2021/05/13 08:55:55;;;;;;;0.32;0.20;;;13.90;99.90;;;;;;5058603;28;20036;-54
2021/05/13 08:58:21;;;;;;;1.42;0.50;;;14.00;99.90;;;;;;5060508;28;20043;-53
2021/05/13 09:00:54;;;;;;;0.43;0.40;;;13.90;99.90;;;;;;5053630;28;20031;-54
2021/05/13 09:03:36;;;;;;;0.40;0.40;;;14.00;99.90;;;;;;5065609;28;20017;-53
2021/05/13 09:06:06;;;;;;;0.90;0.40;;;13.90;99.90;;;;;;5067495;28;20032;-54
2021/05/13 09:08:34;;;;;;;0.30;0.30;;;14.00;99.90;;;;;;5067290;28;20410;-55
2021/05/13 09:11:15;;;;;;;0.43;0.30;;;14.20;99.90;;;;;;5065998;28;20066;-55
2021/05/13 09:13:42;;;;;;;0.77;0.50;;;14.30;99.90;;;;;;5066800;28;20363;-54
2021/05/13 09:16:36;;;;;;;0.30;0.30;;;14.40;99.90;;;;;;5053541;28;20037;-54
2021/05/13 09:19:26;;;;;;;0.40;0.40;;;14.50;99.90;;;;;;5061691;28;20048;-53
2021/05/13 09:22:00;;;;;;;0.43;0.43;;;14.60;99.90;;;;;;5056688;28;20029;-53
2021/05/13 09:24:51;;;;;;;0.47;0.40;;;14.40;99.90;;;;;;5056773;28;20423;-54
2021/05/13 09:27:24;;;;;;;0.60;0.38;;;14.50;99.90;;;;;;5051931;28;20025;-54
2021/05/13 09:30:24;;;;;;;0.63;0.30;;;14.40;99.90;;;;;;5065330;28;20403;-53
2021/05/13 09:32:58;;;;;;;0.30;0.30;;;14.60;99.90;;;;;;5068824;28;20394;-54
2021/05/13 09:35:33;;;;;;;1.05;0.50;;;14.40;99.90;;;;;;5058460;28;20510;-54
2021/05/13 09:38:03;;;;;;;0.68;0.50;;;14.30;99.90;;;;;;5059039;28;20028;-53
2021/05/13 09:40:41;;;;;;;0.40;0.40;;;14.50;99.90;;;;;;5058846;28;20410;-54
2021/05/13 09:43:15;;;;;;;0.82;0.50;;;14.60;99.90;;;;;;5065610;28;20024;-54
2021/05/13 09:46:02;;;;;;;1.15;0.57;;;14.50;99.90;;;;;;5069897;28;20027;-55
2021/05/13 09:48:39;;;;;;;0.30;0.30;;;14.50;99.90;;;;;;5071457;28;20043;-54
2021/05/13 09:51:22;;;;;;;0.50;0.40;;;14.60;99.90;;;;;;5071390;28;20506;-55
2021/05/13 09:54:08;;;;;;;0.67;0.30;;;14.70;99.90;;;;;;5069610;28;20562;-55
2021/05/13 09:56:51;;;;;;;0.82;0.30;;;14.70;99.90;;;;;;5057649;28;20033;-55
2021/05/13 09:59:24;;;;;;;0.30;0.20;;;14.80;99.90;;;;;;5057646;28;20035;-55
2021/05/13 10:01:51;;;;;;;1.23;0.47;;;14.80;99.90;;;;;;5053971;28;20025;-54
2021/05/13 10:04:18;;;;;;;0.57;0.30;;;14.90;99.90;;;;;;5052895;28;20917;-55
2021/05/13 10:06:45;;;;;;;0.52;0.40;;;14.70;99.90;;;;;;5058917;28;20111;-54
2021/05/13 10:09:15;;;;;;;0.45;0.30;;;14.70;99.90;;;;;;5054170;28;20132;-55
2021/05/13 10:11:49;;;;;;;0.30;0.30;;;14.90;99.90;;;;;;5055325;28;20040;-55
2021/05/13 10:14:15;;;;;;;0.40;0.30;;;15.20;99.90;;;;;;5059886;28;20039;-53
2021/05/13 10:16:41;;;;;;;0.57;0.20;;;15.40;99.90;;;;;;5060662;28;20036;-56
2021/05/13 10:19:27;;;;;;;0.95;0.30;;;15.40;99.90;;;;;;5054599;28;20067;-56
2021/05/13 10:21:54;;;;;;;0.40;0.30;;;15.40;99.90;;;;;;5051533;28;20033;-56
2021/05/13 10:24:20;;;;;;;0.20;0.20;;;15.40;99.90;;;;;;5056908;28;20025;-56
2021/05/13 10:26:48;;;;;;;0.30;0.30;;;15.40;99.90;;;;;;5059949;28;20028;-56
2021/05/13 10:29:20;;;;;;;0.30;0.30;;;15.20;99.90;;;;;;5051590;28;20532;-56
2021/05/13 10:32:01;;;;;;;0.30;0.30;;;15.10;99.90;;;;;;5072257;28;20033;-57
2021/05/13 10:34:57;;;;;;;0.20;0.20;;;15.10;99.90;;;;;;5086352;28;20518;-56
2021/05/13 10:37:36;;;;;;;0.55;0.30;;;15.10;99.90;;;;;;5076047;28;20028;-56
2021/05/13 10:43:06;;;;;;;0.40;0.30;;;15.30;99.90;;;;;;5065938;28;20135;-56
2021/05/13 10:45:36;;;;;;;0.52;0.30;;;15.30;99.90;;;;;;5089696;28;20479;-56
2021/05/13 10:48:25;;;;;;;0.45;0.30;;;15.50;99.90;;;;;;5050803;28;20116;-57
2021/05/13 10:51:03;;;;;;;1.17;0.50;;;15.50;99.90;;;;;;5058834;28;20027;-56
2021/05/13 10:53:56;;;;;;;0.30;0.30;;;15.50;99.90;;;;;;5069931;28;20048;-57
2021/05/13 10:56:32;;;;;;;0.70;0.50;;;15.60;99.90;;;;;;5069718;28;20060;-57
2021/05/13 10:59:01;;;;;;;0.30;0.30;;;15.80;99.90;;;;;;5069736;28;20479;-57
2021/05/13 11:01:33;;;;;;;0.30;0.30;;;15.90;99.90;;;;;;5069743;28;20023;-56
2021/05/13 11:04:24;;;;;;;0.57;0.45;;;15.70;99.90;;;;;;5068805;28;20021;-57
2021/05/13 11:06:50;;;;;;;0.32;0.30;;;15.70;99.90;;;;;;5068775;28;20120;-57
2021/05/13 11:09:37;;;;;;;1.08;0.30;;;15.80;99.90;;;;;;5069640;28;20562;-57
2021/05/13 11:12:12;;;;;;;0.25;0.25;;;15.90;99.90;;;;;;5062781;28;20483;-57
2021/05/13 11:17:52;;;;;;;0.40;0.40;;;16.10;99.90;;;;;;5050622;28;20055;-57
2021/05/13 11:20:30;;;;;;;0.57;0.57;;;15.80;99.90;;;;;;5052998;28;20803;-56
2021/05/13 11:23:07;;;;;;;0.55;0.35;;;15.90;99.90;;;;;;5054079;28;20163;-56
2021/05/13 11:25:38;;;;;;;0.30;0.30;;;16.10;99.90;;;;;;5057218;28;20123;-56
2021/05/13 11:28:22;;;;;;;0.32;0.30;;;16.10;99.90;;;;;;5064630;28;20040;-56
2021/05/13 11:30:51;;;;;;;0.28;0.28;;;16.40;99.90;;;;;;5065791;28;20419;-57
2021/05/13 11:33:18;;;;;;;0.60;0.45;;;16.60;99.90;;;;;;5062634;28;20046;-57
2021/05/13 11:35:45;;;;;;;0.43;0.38;;;16.70;99.90;;;;;;5063834;28;20109;-57
2021/05/13 11:38:29;;;;;;;0.52;0.20;;;16.90;99.90;;;;;;5065983;28;20024;-57
2021/05/13 11:40:56;;;;;;;0.38;0.35;;;16.90;99.90;;;;;;5066397;28;20371;-57
2021/05/13 11:43:31;;;;;;;0.25;0.25;;;17.10;99.90;;;;;;5062176;28;20040;-57
2021/05/13 11:45:59;;;;;;;0.30;0.30;;;17.10;99.90;;;;;;5064824;28;20056;-57
2021/05/13 11:48:29;;;;;;;0.73;0.30;;;17.20;99.90;;;;;;5065413;28;20059;-57
2021/05/13 11:51:00;;;;;;;0.30;0.30;;;17.20;99.90;;;;;;5066290;28;20074;-57
2021/05/13 11:53:26;;;;;;;0.68;0.40;;;17.50;99.90;;;;;;5064709;28;20036;-57
2021/05/13 11:55:53;;;;;;;0.73;0.20;;;17.80;99.90;;;;;;5063290;28;20024;-56
2021/05/13 11:58:41;;;;;;;0.70;0.30;;;18.10;99.90;;;;;;5065839;28;20463;-57
2021/05/13 12:01:34;;;;;;;0.30;0.30;;;17.90;99.90;;;;;;5066077;28;20039;-57
2021/05/13 12:04:00;;;;;;;2.50;0.40;;;17.80;99.90;;;;;;5059790;28;20033;-57
2021/05/13 12:06:27;;;;;;;0.30;0.30;;;17.80;99.90;;;;;;5055713;28;20087;-57
2021/05/13 12:08:54;;;;;;;0.30;0.22;;;17.60;99.90;;;;;;5064779;28;20546;-57
2021/05/13 12:11:27;;;;;;;0.35;0.30;;;17.60;99.90;;;;;;5065199;28;20029;-57
2021/05/13 12:13:54;;;;;;;0.60;0.50;;;17.60;99.90;;;;;;5065613;28;20074;-57
2021/05/13 12:16:23;;;;;;;0.52;0.30;;;17.60;99.90;;;;;;5056046;28;20031;-57
2021/05/13 12:18:55;;;;;;;0.80;0.40;;;17.50;99.90;;;;;;5045423;28;20021;-56
2021/05/13 12:21:21;;;;;;;0.45;0.40;;;17.50;99.90;;;;;;5046273;28;20086;-57
2021/05/13 12:23:48;;;;;;;0.50;0.40;;;17.40;99.90;;;;;;5065352;28;20054;-56
2021/05/13 12:26:21;;;;;;;0.30;0.30;;;17.50;99.90;;;;;;5062857;28;20050;-56
2021/05/13 12:28:48;;;;;;;0.20;0.20;;;17.50;99.90;;;;;;5063528;28;20058;-56
2021/05/13 12:31:30;;;;;;;0.28;0.28;;;17.50;99.90;;;;;;5063645;28;20292;-56
2021/05/13 12:34:01;;;;;;;0.30;0.30;;;17.50;99.90;;;;;;5064424;28;20114;-56
2021/05/13 12:36:26;;;;;;;0.43;0.30;;;17.60;99.90;;;;;;5064993;28;20024;-57
2021/05/13 12:38:52;;;;;;;0.20;0.20;;;18.00;99.90;;;;;;5061922;28;20451;-56
2021/05/13 12:41:25;;;;;;;0.40;0.40;;;18.40;99.90;;;;;;5046055;28;20021;-56
2021/05/13 12:44:14;;;;;;;0.22;0.22;;;18.30;99.90;;;;;;5045152;28;20028;-57
2021/05/13 12:46:45;;;;;;;0.28;0.28;;;18.50;99.90;;;;;;5045795;28;20044;-57
2021/05/13 12:49:25;;;;;;;0.20;0.20;;;18.60;99.90;;;;;;5052274;28;20425;-57
2021/05/13 12:52:08;;;;;;;0.25;0.25;;;18.90;99.90;;;;;;5064756;28;20115;-56
2021/05/13 12:54:35;;;;;;;0.25;0.25;;;18.80;99.90;;;;;;5061346;28;20083;-57
2021/05/13 12:57:18;;;;;;;0.20;0.20;;;19.10;99.90;;;;;;5063825;28;20048;-57
2021/05/13 12:59:55;;;;;;;0.38;0.38;;;19.20;99.90;;;;;;5058790;28;20499;-57
2021/05/13 13:02:26;;;;;;;0.28;0.28;;;18.80;99.90;;;;;;5056330;28;20025;-56
2021/05/13 13:04:59;;;;;;;0.40;0.38;;;18.80;99.90;;;;;;5053250;28;20042;-56
2021/05/13 13:07:36;;;;;;;0.50;0.30;;;18.60;99.90;;;;;;5052821;28;20016;-57
2021/05/13 13:10:25;;;;;;;0.20;0.20;;;18.60;99.90;;;;;;5053458;28;20036;-57